Time;durP1;ratioP1;P1;durP2;ratioP2;P2;SDS_P1;SDS_P2;PMS_P1;PMS_P2;Temp;Humidity;BMP_temperature;BMP_pressure;BME280_temperature;BME280_humidity;BME280_pressure;Samples;Min_cycle;Max_cycle;Signal;HPM_P1;HPM_P2
2022/11/21 00:01:46;;;;;;;0.30;0.10;;;6.50;99.90;;;;;;5118673;28;20890;-58
2022/11/21 00:04:13;;;;;;;0.30;0.10;;;6.60;99.90;;;;;;5119171;28;20428;-58
2022/11/21 00:06:40;;;;;;;0.30;0.10;;;6.70;99.90;;;;;;5118471;28;20408;-58
2022/11/21 00:09:07;;;;;;;0.40;0.10;;;6.70;99.90;;;;;;5118936;28;20515;-58
2022/11/21 00:11:34;;;;;;;1.00;0.20;;;6.50;99.90;;;;;;5118521;28;20416;-58
2022/11/21 00:14:00;;;;;;;0.40;0.10;;;6.40;99.90;;;;;;5119107;28;20510;-56
2022/11/21 00:16:27;;;;;;;0.50;0.20;;;6.40;99.90;;;;;;5118746;28;20438;-56
2022/11/21 00:18:55;;;;;;;0.30;0.10;;;6.80;99.90;;;;;;5118915;28;20446;-54
2022/11/21 00:21:22;;;;;;;0.30;0.10;;;6.80;99.90;;;;;;5117901;28;20512;-56
2022/11/21 00:23:49;;;;;;;0.30;0.10;;;6.80;99.90;;;;;;5117429;28;20424;-58
2022/11/21 00:26:17;;;;;;;0.50;0.10;;;6.60;99.90;;;;;;5118538;28;20672;-57
2022/11/21 00:28:44;;;;;;;0.30;0.10;;;6.50;99.90;;;;;;5118514;28;20418;-58
2022/11/21 00:31:19;;;;;;;0.30;0.10;;;6.40;99.90;;;;;;5118629;28;20420;-57
2022/11/21 00:33:46;;;;;;;0.40;0.10;;;6.30;99.90;;;;;;5118943;28;20909;-57
2022/11/21 00:36:14;;;;;;;0.30;0.10;;;6.10;99.90;;;;;;5118295;28;20435;-58
2022/11/21 00:38:40;;;;;;;0.33;0.10;;;6.10;99.90;;;;;;5117834;28;20424;-58
2022/11/21 00:41:07;;;;;;;0.30;0.10;;;6.30;99.90;;;;;;5118174;28;20439;-57
2022/11/21 00:43:34;;;;;;;0.30;0.10;;;6.20;99.90;;;;;;5118216;28;20523;-57
2022/11/21 00:46:01;;;;;;;0.30;0.10;;;6.10;99.90;;;;;;5118403;28;20416;-57
2022/11/21 00:48:29;;;;;;;0.30;0.10;;;6.00;99.90;;;;;;5118128;28;20431;-57
2022/11/21 00:50:56;;;;;;;0.30;0.10;;;6.00;99.90;;;;;;5117979;28;20428;-57
2022/11/21 00:53:24;;;;;;;0.70;0.10;;;6.00;99.90;;;;;;5117967;28;20430;-57
2022/11/21 00:55:51;;;;;;;0.30;0.10;;;5.90;99.90;;;;;;5117843;28;20758;-58
2022/11/21 00:58:18;;;;;;;0.30;0.10;;;6.00;99.90;;;;;;5118120;28;20420;-58
2022/11/21 01:00:44;;;;;;;0.30;0.10;;;6.00;99.90;;;;;;5117852;28;20419;-58
2022/11/21 01:03:11;;;;;;;0.30;0.10;;;6.00;99.90;;;;;;5117752;28;20898;-58
2022/11/21 01:05:38;;;;;;;0.30;0.10;;;5.90;99.90;;;;;;5117594;28;20704;-58
2022/11/21 01:08:05;;;;;;;0.30;0.10;;;5.80;99.90;;;;;;5117813;28;20420;-57
2022/11/21 01:10:34;;;;;;;0.30;0.10;;;5.80;99.90;;;;;;5117582;28;20839;-58
2022/11/21 01:13:00;;;;;;;0.40;0.10;;;5.70;99.90;;;;;;5117747;28;20862;-55
2022/11/21 01:15:27;;;;;;;0.40;0.10;;;5.70;99.90;;;;;;5117461;28;20424;-55
2022/11/21 01:17:54;;;;;;;0.40;0.10;;;5.60;99.90;;;;;;5117784;28;20503;-57
2022/11/21 01:20:21;;;;;;;0.40;0.10;;;5.50;99.90;;;;;;5116903;28;20434;-56
2022/11/21 01:22:47;;;;;;;0.30;0.10;;;5.50;99.90;;;;;;5116285;28;20424;-56
2022/11/21 01:25:14;;;;;;;0.50;0.10;;;5.40;99.90;;;;;;5117346;28;20419;-57
2022/11/21 01:27:42;;;;;;;0.30;0.10;;;5.30;99.90;;;;;;5117339;28;20801;-58
2022/11/21 01:30:10;;;;;;;1.00;0.10;;;5.40;99.90;;;;;;5117425;28;20420;-58
2022/11/21 01:32:37;;;;;;;0.35;0.10;;;5.50;99.90;;;;;;5117297;28;20415;-53
2022/11/21 01:35:04;;;;;;;0.40;0.10;;;5.60;99.90;;;;;;5117126;28;20839;-56
2022/11/21 01:37:31;;;;;;;0.40;0.10;;;5.60;99.90;;;;;;5117505;28;20428;-57
2022/11/21 01:39:58;;;;;;;0.70;0.20;;;5.70;99.90;;;;;;5116676;28;20416;-54
2022/11/21 01:42:25;;;;;;;0.90;0.20;;;5.90;99.90;;;;;;5116004;28;20511;-52
2022/11/21 01:44:53;;;;;;;0.35;0.10;;;6.10;99.90;;;;;;5116513;28;20715;-57
2022/11/21 01:47:22;;;;;;;0.40;0.10;;;6.10;99.90;;;;;;5115656;28;20689;-56
2022/11/21 01:49:53;;;;;;;0.30;0.10;;;6.10;99.90;;;;;;5115137;28;20416;-56
2022/11/21 01:52:24;;;;;;;0.60;0.10;;;6.00;99.90;;;;;;5113180;28;20906;-57
2022/11/21 01:54:57;;;;;;;0.50;0.20;;;5.90;99.90;;;;;;5113445;28;20712;-57
2022/11/21 01:57:27;;;;;;;1.00;0.10;;;5.90;99.90;;;;;;5113650;28;20875;-57
2022/11/21 02:00:00;;;;;;;0.40;0.20;;;5.80;99.90;;;;;;5114189;28;20435;-58
2022/11/21 02:02:30;;;;;;;0.50;0.20;;;5.80;99.90;;;;;;5114482;28;20424;-58
2022/11/21 02:04:57;;;;;;;0.40;0.20;;;5.90;99.90;;;;;;5115960;28;20416;-57
2022/11/21 02:07:26;;;;;;;0.75;0.20;;;5.70;99.90;;;;;;5116538;28;20605;-56
2022/11/21 02:09:56;;;;;;;0.30;0.20;;;5.60;99.90;;;;;;5116676;28;20696;-58
2022/11/21 02:12:26;;;;;;;0.68;0.20;;;5.60;99.90;;;;;;5116219;28;20495;-58
2022/11/21 02:14:56;;;;;;;0.40;0.20;;;5.60;99.90;;;;;;5116612;28;20444;-58
2022/11/21 02:17:23;;;;;;;0.40;0.20;;;5.40;99.90;;;;;;5116742;28;20416;-58
2022/11/21 02:19:54;;;;;;;0.73;0.20;;;5.70;99.90;;;;;;5116237;28;20424;-58
2022/11/21 02:22:30;;;;;;;0.40;0.20;;;5.60;99.90;;;;;;5116124;28;20417;-58
2022/11/21 02:25:02;;;;;;;1.00;0.20;;;5.50;99.90;;;;;;5116357;28;20424;-58
2022/11/21 02:27:29;;;;;;;0.30;0.10;;;5.60;99.90;;;;;;5116188;28;20463;-58
2022/11/21 02:29:56;;;;;;;0.60;0.10;;;5.60;99.90;;;;;;5116165;28;20794;-58
2022/11/21 02:32:25;;;;;;;0.50;0.20;;;5.70;99.90;;;;;;5116343;28;20418;-58
2022/11/21 02:34:51;;;;;;;0.90;0.20;;;5.60;99.90;;;;;;5115493;28;20426;-58
2022/11/21 02:37:18;;;;;;;0.30;0.10;;;5.60;99.90;;;;;;5115226;28;20419;-59
2022/11/21 02:39:47;;;;;;;0.30;0.10;;;5.70;99.90;;;;;;5115601;28;20416;-58
2022/11/21 02:42:21;;;;;;;0.38;0.10;;;5.50;99.90;;;;;;5115935;28;20426;-58
2022/11/21 02:44:53;;;;;;;0.30;0.10;;;5.90;99.90;;;;;;5115959;28;20411;-58
2022/11/21 02:47:22;;;;;;;0.40;0.20;;;5.70;99.90;;;;;;5115651;28;20812;-58
2022/11/21 02:49:55;;;;;;;0.30;0.10;;;5.90;99.90;;;;;;5114845;28;20416;-58
2022/11/21 02:52:22;;;;;;;0.40;0.20;;;5.70;99.90;;;;;;5115862;28;20412;-59
2022/11/21 02:54:48;;;;;;;0.30;0.10;;;5.70;99.90;;;;;;5115086;28;20425;-58
2022/11/21 02:57:17;;;;;;;0.40;0.20;;;5.80;99.90;;;;;;5115737;28;20428;-59
2022/11/21 02:59:43;;;;;;;0.30;0.10;;;5.70;99.90;;;;;;5115315;28;20722;-58
2022/11/21 03:02:10;;;;;;;0.40;0.20;;;5.70;99.90;;;;;;5113289;28;20435;-58
2022/11/21 03:04:37;;;;;;;0.40;0.10;;;5.70;99.90;;;;;;5114910;28;20409;-58
2022/11/21 03:07:04;;;;;;;0.80;0.10;;;5.80;99.90;;;;;;5115805;28;20824;-58
2022/11/21 03:09:30;;;;;;;0.30;0.10;;;6.00;99.90;;;;;;5115425;28;20422;-58
2022/11/21 03:11:57;;;;;;;0.30;0.10;;;5.90;99.90;;;;;;5115913;28;20418;-58
2022/11/21 03:14:25;;;;;;;0.50;0.10;;;5.90;99.90;;;;;;5116167;28;20431;-58
2022/11/21 03:16:52;;;;;;;0.40;0.10;;;6.00;99.90;;;;;;5114973;28;20474;-58
2022/11/21 03:19:19;;;;;;;0.40;0.10;;;5.80;99.90;;;;;;5115804;28;20785;-58
2022/11/21 03:21:46;;;;;;;0.50;0.10;;;5.60;99.90;;;;;;5115085;28;20515;-59
2022/11/21 03:24:13;;;;;;;0.30;0.10;;;5.40;99.90;;;;;;5115814;28;20430;-58
2022/11/21 03:26:39;;;;;;;0.30;0.10;;;5.30;99.90;;;;;;5115641;28;20491;-58
2022/11/21 03:29:07;;;;;;;0.40;0.10;;;5.30;99.90;;;;;;5115979;28;20519;-57
2022/11/21 03:31:35;;;;;;;0.30;0.10;;;5.30;99.90;;;;;;5115582;28;20412;-57
2022/11/21 03:34:02;;;;;;;0.60;0.10;;;5.30;99.90;;;;;;5116095;28;20452;-57
2022/11/21 03:36:29;;;;;;;0.35;0.10;;;5.30;99.90;;;;;;5115227;28;20862;-58
2022/11/21 03:38:56;;;;;;;0.30;0.10;;;5.30;99.90;;;;;;5114941;28;20430;-58
2022/11/21 03:41:31;;;;;;;0.30;0.10;;;5.30;99.90;;;;;;5114762;28;20723;-57
2022/11/21 03:44:00;;;;;;;0.30;0.10;;;5.20;99.90;;;;;;5115379;28;20428;-57
2022/11/21 03:46:27;;;;;;;0.30;0.10;;;5.20;99.90;;;;;;5115523;28;20415;-58
2022/11/21 03:48:55;;;;;;;0.30;0.17;;;5.20;99.90;;;;;;5115796;28;20446;-58
2022/11/21 03:51:22;;;;;;;0.32;0.10;;;5.20;99.90;;;;;;5115534;28;20699;-57
2022/11/21 03:53:50;;;;;;;0.30;0.10;;;5.30;99.90;;;;;;5115612;28;20424;-58
2022/11/21 03:56:17;;;;;;;0.30;0.10;;;5.30;99.90;;;;;;5115160;28;20492;-57
2022/11/21 03:58:44;;;;;;;0.40;0.10;;;5.30;99.90;;;;;;5115370;28;20458;-57
2022/11/21 04:01:11;;;;;;;0.80;0.10;;;5.30;99.90;;;;;;5114842;28;20416;-57
2022/11/21 04:03:39;;;;;;;0.30;0.10;;;5.30;99.90;;;;;;5115670;28;20776;-58
2022/11/21 04:06:07;;;;;;;0.30;0.10;;;5.30;99.90;;;;;;5115594;28;20421;-58
2022/11/21 04:08:34;;;;;;;0.30;0.10;;;5.30;99.90;;;;;;5115264;28;20424;-58
2022/11/21 04:11:01;;;;;;;1.10;0.10;;;5.30;99.90;;;;;;5115383;28;20416;-58
2022/11/21 04:13:27;;;;;;;0.30;0.10;;;5.40;99.90;;;;;;5115307;28;20428;-58
2022/11/21 04:15:54;;;;;;;0.30;0.10;;;5.40;99.90;;;;;;5117491;28;20424;-59
2022/11/21 04:18:21;;;;;;;0.80;0.10;;;5.50;99.90;;;;;;5118880;28;20895;-57
2022/11/21 04:20:48;;;;;;;0.30;0.10;;;5.50;99.90;;;;;;5118873;28;20420;-58
2022/11/21 04:23:16;;;;;;;0.40;0.10;;;5.50;99.90;;;;;;5117684;28;20730;-57
2022/11/21 04:25:43;;;;;;;0.47;0.10;;;5.50;99.90;;;;;;5117535;28;20412;-58
2022/11/21 04:28:13;;;;;;;0.50;0.10;;;5.50;99.90;;;;;;5118897;28;20813;-58
2022/11/21 04:30:40;;;;;;;0.30;0.10;;;5.50;99.90;;;;;;5118674;28;20456;-58
2022/11/21 04:33:08;;;;;;;0.30;0.10;;;5.40;99.90;;;;;;5117005;28;20431;-58
2022/11/21 04:35:34;;;;;;;0.80;0.13;;;5.40;99.90;;;;;;5118089;28;20440;-58
2022/11/21 04:38:01;;;;;;;0.30;0.10;;;5.40;99.90;;;;;;5118409;28;20430;-58
2022/11/21 04:40:29;;;;;;;0.40;0.10;;;5.50;99.90;;;;;;5117912;28;20854;-57
2022/11/21 04:42:56;;;;;;;0.40;0.20;;;5.50;99.90;;;;;;5118152;28;20498;-56
2022/11/21 04:45:23;;;;;;;0.30;0.10;;;5.50;99.90;;;;;;5118367;28;20699;-57
2022/11/21 04:47:50;;;;;;;0.30;0.10;;;5.50;99.90;;;;;;5118454;28;20416;-57
2022/11/21 04:50:18;;;;;;;0.40;0.10;;;5.40;99.90;;;;;;5117588;28;20416;-58
2022/11/21 04:52:50;;;;;;;0.30;0.10;;;5.50;99.90;;;;;;5117706;28;20503;-57
2022/11/21 04:55:16;;;;;;;0.70;0.20;;;5.50;99.90;;;;;;5117738;28;20412;-58
2022/11/21 04:57:45;;;;;;;0.30;0.10;;;5.50;99.90;;;;;;5117763;28;20438;-58
2022/11/21 05:00:14;;;;;;;1.63;0.13;;;5.40;99.90;;;;;;5117937;28;20515;-58
2022/11/21 05:02:41;;;;;;;0.30;0.10;;;5.50;99.90;;;;;;5118121;28;20446;-58
2022/11/21 05:05:08;;;;;;;0.40;0.10;;;5.50;99.90;;;;;;5116927;28;20416;-58
2022/11/21 05:07:35;;;;;;;0.40;0.13;;;5.50;99.90;;;;;;5117727;28;20866;-58
2022/11/21 05:10:02;;;;;;;0.30;0.10;;;5.50;99.90;;;;;;5117777;28;20420;-57
2022/11/21 05:15:15;;;;;;;0.30;0.10;;;5.50;99.90;;;;;;5116030;28;20395;-59
2022/11/21 05:17:42;;;;;;;0.40;0.20;;;5.50;99.90;;;;;;5114540;28;20443;-57
2022/11/21 05:20:10;;;;;;;0.55;0.10;;;5.70;99.90;;;;;;5115198;28;20518;-58
2022/11/21 05:22:36;;;;;;;0.40;0.15;;;5.60;99.90;;;;;;5115429;28;20855;-58
2022/11/21 05:25:04;;;;;;;0.30;0.10;;;5.60;99.90;;;;;;5115157;28;20412;-58
2022/11/21 05:27:31;;;;;;;0.30;0.10;;;5.50;99.90;;;;;;5116715;28;20420;-57
2022/11/21 05:29:57;;;;;;;0.70;0.20;;;5.50;99.90;;;;;;5115122;28;20416;-58
2022/11/21 05:32:26;;;;;;;0.30;0.10;;;5.50;99.90;;;;;;5114996;28;20438;-58
2022/11/21 05:34:52;;;;;;;0.50;0.20;;;5.40;99.90;;;;;;5116622;28;20416;-58
2022/11/21 05:37:20;;;;;;;0.40;0.10;;;5.40;99.90;;;;;;5114416;28;20834;-59
2022/11/21 05:39:47;;;;;;;0.30;0.20;;;5.40;99.90;;;;;;5113529;28;20640;-58
2022/11/21 05:42:14;;;;;;;0.70;0.20;;;5.30;99.90;;;;;;5112961;28;20822;-58
2022/11/21 05:44:40;;;;;;;0.70;0.10;;;5.30;99.90;;;;;;5114553;28;20416;-58
2022/11/21 05:47:06;;;;;;;0.50;0.20;;;5.30;99.90;;;;;;5114375;28;20407;-58
2022/11/21 05:49:35;;;;;;;0.60;0.20;;;5.30;99.90;;;;;;5114673;28;20412;-58
2022/11/21 05:52:01;;;;;;;0.40;0.20;;;5.40;99.90;;;;;;5115721;28;20985;-58
2022/11/21 05:54:28;;;;;;;0.60;0.20;;;5.40;99.90;;;;;;5114780;28;20711;-57
2022/11/21 05:56:55;;;;;;;0.40;0.20;;;5.40;99.90;;;;;;5114938;28;20715;-58
2022/11/21 05:59:22;;;;;;;0.90;0.20;;;5.50;99.90;;;;;;5113925;28;20435;-58
2022/11/21 06:04:33;;;;;;;0.60;0.20;;;5.50;99.90;;;;;;5113855;28;20450;-59
2022/11/21 06:07:01;;;;;;;0.47;0.20;;;5.60;99.90;;;;;;5114264;28;20409;-58
2022/11/21 06:09:28;;;;;;;0.70;0.20;;;5.80;99.90;;;;;;5115353;28;20833;-58
2022/11/21 06:11:54;;;;;;;0.50;0.20;;;5.90;99.90;;;;;;5115459;28;20416;-58
2022/11/21 06:14:21;;;;;;;0.85;0.20;;;6.20;99.90;;;;;;5115345;28;20424;-59
2022/11/21 06:16:50;;;;;;;0.50;0.20;;;6.40;99.90;;;;;;5115956;28;20434;-58
2022/11/21 06:19:16;;;;;;;0.80;0.20;;;6.60;99.90;;;;;;5115839;28;20424;-58
2022/11/21 06:21:43;;;;;;;0.50;0.20;;;6.60;99.90;;;;;;5116248;28;20693;-58
2022/11/21 06:24:12;;;;;;;1.00;0.20;;;6.50;99.90;;;;;;5115752;28;20434;-58
2022/11/21 06:26:38;;;;;;;0.70;0.20;;;6.40;99.90;;;;;;5113734;28;20408;-59
2022/11/21 06:29:05;;;;;;;0.50;0.20;;;6.40;99.90;;;;;;5114154;28;20424;-59
2022/11/21 06:31:32;;;;;;;0.50;0.20;;;6.20;99.90;;;;;;5114046;28;20515;-58
2022/11/21 06:33:59;;;;;;;0.70;0.30;;;6.20;99.90;;;;;;5115455;28;20420;-58
2022/11/21 06:36:26;;;;;;;0.50;0.30;;;6.10;99.90;;;;;;5115024;28;20707;-58
2022/11/21 06:38:54;;;;;;;0.60;0.30;;;6.00;99.90;;;;;;5113857;28;20422;-58
2022/11/21 06:41:24;;;;;;;1.08;0.40;;;6.10;99.90;;;;;;5114131;28;20423;-58
2022/11/21 06:43:51;;;;;;;0.52;0.20;;;6.00;99.90;;;;;;5114461;28;20740;-58
2022/11/21 06:46:19;;;;;;;0.50;0.30;;;6.00;99.90;;;;;;5114373;28;20416;-59
2022/11/21 06:48:45;;;;;;;0.90;0.20;;;6.00;99.90;;;;;;5111925;28;20902;-59
2022/11/21 06:51:16;;;;;;;0.50;0.20;;;5.90;99.90;;;;;;5113601;28;21135;-59
2022/11/21 06:53:42;;;;;;;0.80;0.20;;;5.80;99.90;;;;;;5113412;28;20789;-58
2022/11/21 06:56:10;;;;;;;0.50;0.20;;;5.70;99.90;;;;;;5114542;28;20819;-58
2022/11/21 06:58:38;;;;;;;0.60;0.20;;;5.60;99.90;;;;;;5113236;28;20931;-58
2022/11/21 07:01:05;;;;;;;0.50;0.30;;;5.60;99.90;;;;;;5114686;28;20419;-57
2022/11/21 07:03:32;;;;;;;0.55;0.20;;;5.60;99.90;;;;;;5113781;28;20866;-58
2022/11/21 07:06:00;;;;;;;0.70;0.20;;;5.60;99.90;;;;;;5112773;28;20894;-59
2022/11/21 07:08:28;;;;;;;0.47;0.30;;;5.60;99.90;;;;;;5110784;28;20911;-58
2022/11/21 07:10:54;;;;;;;0.47;0.20;;;5.50;99.90;;;;;;5113199;28;20778;-58
2022/11/21 07:13:20;;;;;;;0.57;0.20;;;5.50;99.90;;;;;;5111346;28;20426;-59
2022/11/21 07:15:50;;;;;;;0.70;0.30;;;5.40;99.90;;;;;;5105000;28;20505;-59
2022/11/21 07:18:18;;;;;;;0.50;0.30;;;5.40;99.90;;;;;;5091627;28;20433;-57
2022/11/21 07:20:45;;;;;;;1.05;0.30;;;5.30;99.90;;;;;;5106657;28;20415;-59
2022/11/21 07:23:12;;;;;;;0.60;0.30;;;5.20;99.90;;;;;;5111612;28;20929;-58
2022/11/21 07:25:41;;;;;;;0.50;0.30;;;5.20;99.90;;;;;;5103536;28;20441;-58
2022/11/21 07:28:09;;;;;;;0.50;0.30;;;5.10;99.90;;;;;;5103674;28;20412;-58
2022/11/21 07:30:36;;;;;;;0.40;0.20;;;5.20;99.90;;;;;;5101131;28;20453;-58
2022/11/21 07:33:08;;;;;;;0.70;0.40;;;5.30;99.90;;;;;;5096350;28;20522;-57
2022/11/21 07:35:35;;;;;;;0.50;0.30;;;5.30;99.90;;;;;;5096727;28;20492;-56
2022/11/21 07:38:03;;;;;;;0.57;0.30;;;5.20;99.90;;;;;;5111868;28;20432;-58
2022/11/21 07:40:32;;;;;;;0.60;0.30;;;5.20;99.90;;;;;;5100655;28;20879;-58
2022/11/21 07:43:01;;;;;;;0.50;0.40;;;5.20;99.90;;;;;;5090763;28;20702;-58
2022/11/21 07:45:28;;;;;;;0.50;0.30;;;5.10;99.90;;;;;;5098284;28;20428;-58
2022/11/21 07:47:58;;;;;;;0.90;0.40;;;5.10;99.90;;;;;;5096546;28;20628;-58
2022/11/21 07:50:27;;;;;;;0.60;0.30;;;5.10;99.90;;;;;;5104039;28;20729;-57
2022/11/21 07:52:57;;;;;;;0.50;0.30;;;5.10;99.90;;;;;;5113437;28;20436;-58
2022/11/21 07:55:24;;;;;;;0.50;0.30;;;5.10;99.90;;;;;;5109348;28;20447;-55
2022/11/21 07:57:58;;;;;;;0.90;0.40;;;5.00;99.90;;;;;;5117102;28;20431;-58
2022/11/21 08:00:25;;;;;;;0.70;0.40;;;5.00;99.90;;;;;;5117314;28;20416;-57
2022/11/21 08:02:52;;;;;;;1.30;0.40;;;5.00;99.90;;;;;;5116681;28;20467;-57
2022/11/21 08:05:18;;;;;;;1.40;0.40;;;5.00;99.90;;;;;;5116455;28;20877;-56
2022/11/21 08:07:47;;;;;;;0.80;0.30;;;5.10;99.90;;;;;;5114845;28;20416;-55
2022/11/21 08:10:14;;;;;;;1.00;0.40;;;5.10;99.90;;;;;;5115026;28;20412;-53
2022/11/21 08:12:41;;;;;;;1.70;0.40;;;5.10;99.90;;;;;;5113730;28;20743;-57
2022/11/21 08:15:08;;;;;;;1.27;0.43;;;5.10;99.90;;;;;;5113757;28;20436;-56
2022/11/21 08:17:35;;;;;;;0.70;0.32;;;5.10;99.90;;;;;;5113563;28;20439;-53
2022/11/21 08:20:03;;;;;;;1.40;0.40;;;5.20;99.90;;;;;;5111596;28;20440;-53
2022/11/21 08:22:30;;;;;;;0.70;0.40;;;5.20;99.90;;;;;;5113006;28;20432;-55
2022/11/21 08:24:58;;;;;;;1.42;0.50;;;5.20;99.90;;;;;;5113593;28;20452;-54
2022/11/21 08:27:25;;;;;;;0.80;0.40;;;5.30;99.90;;;;;;5110471;28;20606;-53
2022/11/21 08:29:51;;;;;;;0.70;0.40;;;5.40;99.90;;;;;;5112992;28;20411;-55
2022/11/21 08:32:18;;;;;;;0.70;0.40;;;5.50;99.90;;;;;;5113657;28;20458;-55
2022/11/21 08:34:45;;;;;;;2.58;0.40;;;5.60;99.90;;;;;;5113600;28;20438;-55
2022/11/21 08:37:12;;;;;;;1.17;0.40;;;5.90;99.90;;;;;;5111889;28;20428;-52
2022/11/21 08:39:38;;;;;;;0.50;0.40;;;6.10;99.90;;;;;;5105732;28;20503;-53
2022/11/21 08:42:07;;;;;;;1.60;0.65;;;6.10;99.90;;;;;;5108247;28;20420;-52
2022/11/21 08:44:34;;;;;;;0.70;0.40;;;6.10;99.90;;;;;;5099741;28;20444;-52
2022/11/21 08:47:03;;;;;;;0.80;0.40;;;6.00;99.90;;;;;;5108427;28;20582;-55
2022/11/21 08:49:30;;;;;;;1.13;0.50;;;6.00;99.90;;;;;;5096417;28;20437;-51
2022/11/21 08:51:57;;;;;;;0.90;0.50;;;6.00;99.90;;;;;;5111155;28;20432;-54
2022/11/21 08:54:24;;;;;;;0.83;0.50;;;6.10;99.90;;;;;;5109119;28;20435;-54
2022/11/21 08:56:51;;;;;;;3.10;1.50;;;6.10;99.90;;;;;;5106428;28;20445;-53
2022/11/21 08:59:20;;;;;;;1.08;0.50;;;6.20;99.90;;;;;;5102999;28;20436;-55
2022/11/21 09:01:46;;;;;;;1.60;0.50;;;6.30;99.90;;;;;;5100525;28;20948;-54
2022/11/21 09:04:13;;;;;;;0.80;0.50;;;6.30;99.90;;;;;;5099499;28;20468;-55
2022/11/21 09:06:40;;;;;;;1.00;0.50;;;6.40;99.90;;;;;;5098676;28;20507;-54
2022/11/21 09:09:07;;;;;;;1.90;0.50;;;6.50;99.90;;;;;;5098685;28;20525;-54
2022/11/21 09:11:36;;;;;;;1.17;0.50;;;6.50;99.90;;;;;;5094132;28;20446;-55
2022/11/21 09:19:33;;;;;;;1.40;0.50;;;6.80;99.90;;;;;;5105171;28;20788;-55
2022/11/21 09:22:00;;;;;;;0.80;0.40;;;6.90;99.90;;;;;;5109013;28;20468;-54
2022/11/21 09:24:26;;;;;;;0.98;0.50;;;7.00;99.90;;;;;;5105530;28;20435;-56
2022/11/21 09:26:53;;;;;;;0.90;0.45;;;7.10;99.90;;;;;;5112837;28;20415;-54
2022/11/21 09:29:20;;;;;;;1.15;0.40;;;7.20;99.90;;;;;;5113778;28;20436;-55
2022/11/21 09:31:48;;;;;;;1.00;0.40;;;7.20;99.90;;;;;;5111817;28;20470;-54
2022/11/21 09:34:15;;;;;;;1.50;0.40;;;7.30;99.90;;;;;;5112558;28;20436;-53
2022/11/21 09:36:42;;;;;;;1.10;0.40;;;7.40;99.90;;;;;;5113903;28;20426;-53
2022/11/21 09:39:08;;;;;;;0.63;0.30;;;7.50;99.90;;;;;;5113797;28;20432;-54
2022/11/21 09:44:53;;;;;;;1.23;0.38;;;7.80;99.90;;;;;;5112778;28;20416;-52
2022/11/21 09:47:26;;;;;;;0.70;0.30;;;7.90;92.30;;;;;;5114346;28;20409;-52
2022/11/21 09:49:59;;;;;;;0.77;0.30;;;7.90;46.50;;;;;;5114605;28;20494;-53
2022/11/21 09:52:32;;;;;;;1.60;0.30;;;8.10;54.90;;;;;;5112121;28;20459;-53
2022/11/21 09:55:04;;;;;;;1.10;0.40;;;8.20;43.50;;;;;;5089320;28;20418;-54
2022/11/21 09:57:35;;;;;;;1.88;0.30;;;8.30;31.90;;;;;;5089065;28;20984;-51
2022/11/21 10:00:05;;;;;;;0.70;0.30;;;8.40;32.70;;;;;;5091622;28;20426;-54
2022/11/21 10:02:34;;;;;;;0.80;0.30;;;8.30;3.40;;;;;;5110983;28;20416;-50
2022/11/21 10:05:00;;;;;;;1.50;0.20;;;8.40;26.60;;;;;;5097388;28;20482;-56
2022/11/21 10:07:32;;;;;;;0.60;0.30;;;8.40;1.00;;;;;;5096665;28;21036;-55
2022/11/21 10:10:24;;;;;;;0.63;0.30;;;8.60;1.00;;;;;;5112852;28;20462;-55
2022/11/21 10:13:06;;;;;;;1.45;0.30;;;8.60;1.00;;;;;;5111772;28;20423;-55
2022/11/21 10:15:44;;;;;;;1.20;0.40;;;8.60;1.00;;;;;;5099966;28;20509;-55
2022/11/21 10:18:42;;;;;;;1.63;0.25;;;8.70;1.00;;;;;;5110609;28;20440;-55
2022/11/21 10:21:22;;;;;;;0.70;0.40;;;8.80;1.00;;;;;;5078520;28;20440;-55
2022/11/21 10:24:07;;;;;;;1.17;0.30;;;8.80;1.00;;;;;;5091889;28;20425;-55
2022/11/21 10:26:42;;;;;;;1.23;0.30;;;8.90;1.00;;;;;;5101927;28;20424;-54
2022/11/21 10:29:14;;;;;;;1.45;0.50;;;9.00;1.00;;;;;;5108247;28;20491;-57
2022/11/21 10:31:43;;;;;;;0.50;0.30;;;9.20;1.00;;;;;;5103150;28;20492;-56
2022/11/21 10:34:15;;;;;;;2.08;0.40;;;9.20;1.00;;;;;;5102099;28;20464;-51
2022/11/21 10:36:47;;;;;;;0.70;0.40;;;9.30;1.00;;;;;;5102667;28;20464;-54
2022/11/21 10:39:18;;;;;;;2.00;0.40;;;9.40;1.00;;;;;;5107323;28;20431;-51
2022/11/21 10:41:53;;;;;;;1.00;0.40;;;9.50;1.00;;;;;;5102329;28;20932;-54
2022/11/21 10:47:16;;;;;;;0.93;0.30;;;9.70;1.00;;;;;;5105904;28;20865;-54
2022/11/21 10:50:00;;;;;;;1.10;0.30;;;9.70;1.00;;;;;;5102143;28;20483;-54
2022/11/21 10:52:28;;;;;;;1.05;0.40;;;9.80;1.00;;;;;;5093899;28;20426;-53
2022/11/21 10:55:10;;;;;;;1.30;0.40;;;9.90;1.00;;;;;;5104796;28;20423;-52
2022/11/21 10:57:43;;;;;;;0.80;0.40;;;9.90;1.00;;;;;;5104426;28;20437;-54
2022/11/21 11:00:22;;;;;;;0.90;0.40;;;10.10;1.00;;;;;;5113183;28;20191;-51
2022/11/21 11:03:15;;;;;;;0.77;0.27;;;10.10;1.00;;;;;;5112448;28;20857;-54
2022/11/21 11:05:56;;;;;;;1.40;0.20;;;10.00;1.00;;;;;;5108729;28;20444;-53
2022/11/21 11:08:23;;;;;;;0.97;0.20;;;9.90;1.00;;;;;;5114279;28;20452;-54
2022/11/21 11:11:02;;;;;;;0.93;0.20;;;9.80;1.00;;;;;;5114414;28;20441;-53
2022/11/21 11:13:36;;;;;;;2.10;0.50;;;10.00;1.00;;;;;;5113789;28;20882;-55
2022/11/21 11:16:15;;;;;;;1.37;0.30;;;10.00;1.00;;;;;;5103892;28;20499;-55
2022/11/21 11:18:47;;;;;;;0.60;0.20;;;10.20;1.00;;;;;;5109566;28;20574;-53
2022/11/21 11:21:19;;;;;;;1.37;0.20;;;10.10;99.90;;;;;;5092895;28;20445;-53
2022/11/21 11:23:47;;;;;;;2.83;0.20;;;9.90;1.00;;;;;;5093680;28;20453;-55
2022/11/21 11:26:32;;;;;;;0.63;0.30;;;9.70;99.90;;;;;;5096722;28;20448;-52
2022/11/21 11:29:09;;;;;;;0.47;0.20;;;9.70;1.00;;;;;;5094948;28;20483;-52
2022/11/21 11:31:43;;;;;;;0.90;0.23;;;9.70;99.90;;;;;;5105812;28;20432;-54
2022/11/21 11:34:13;;;;;;;0.63;0.20;;;9.60;1.00;;;;;;5117248;28;20511;-50
2022/11/21 11:36:54;;;;;;;5.50;0.33;;;9.60;99.90;;;;;;5117461;28;20789;-54
2022/11/21 11:39:35;;;;;;;1.47;0.40;;;9.30;1.00;;;;;;5116258;28;20488;-54
2022/11/21 11:48:38;;;;;;;1.07;0.30;;;9.60;1.00;;;;;;5116576;28;20420;-52
2022/11/21 11:51:13;;;;;;;1.03;0.20;;;9.70;99.90;;;;;;5115728;28;20451;-53
2022/11/21 11:53:46;;;;;;;0.47;0.30;;;9.70;1.00;;;;;;5096739;28;20911;-54
2022/11/21 11:56:17;;;;;;;0.70;0.23;;;9.80;99.90;;;;;;5097013;28;20728;-56
2022/11/21 11:58:47;;;;;;;0.50;0.20;;;10.00;99.90;;;;;;5097421;28;20481;-54
2022/11/21 12:01:20;;;;;;;0.70;0.20;;;10.10;1.00;;;;;;5098925;28;20880;-56
2022/11/21 12:03:53;;;;;;;2.00;0.20;;;10.10;99.90;;;;;;5114327;28;20461;-54
2022/11/21 12:06:24;;;;;;;0.40;0.20;;;10.10;99.90;;;;;;5117074;28;20444;-55
2022/11/21 12:08:56;;;;;;;3.17;0.37;;;10.10;11.50;;;;;;5116539;28;20459;-55
2022/11/21 12:20:15;;;;;;;0.37;0.10;;;10.00;1.00;;;;;;5102179;28;20479;-54
2022/11/21 12:22:43;;;;;;;1.20;0.33;;;9.90;1.00;;;;;;5099040;28;20546;-53
2022/11/21 12:25:13;;;;;;;1.20;0.30;;;10.10;1.00;;;;;;5109634;28;20438;-55
2022/11/21 12:27:41;;;;;;;0.57;0.27;;;9.90;99.90;;;;;;5102318;28;20451;-53
2022/11/21 12:30:29;;;;;;;1.13;0.20;;;9.80;99.90;;;;;;5105186;28;20437;-55
2022/11/21 12:33:01;;;;;;;0.60;0.27;;;9.80;1.00;;;;;;5099739;28;20460;-56
2022/11/21 12:35:40;;;;;;;0.40;0.20;;;9.90;99.90;;;;;;5104820;28;20485;-58
2022/11/21 12:38:20;;;;;;;0.87;0.20;;;9.90;1.00;;;;;;5110700;28;20541;-56
2022/11/21 12:41:00;;;;;;;1.17;0.30;;;9.80;1.00;;;;;;5103275;28;20484;-57
2022/11/21 12:43:36;;;;;;;1.53;0.30;;;9.70;1.00;;;;;;5111827;28;20448;-54
2022/11/21 12:46:10;;;;;;;0.60;0.30;;;9.70;1.00;;;;;;5112644;28;20489;-56
2022/11/21 12:55:13;;;;;;;0.80;0.30;;;10.30;99.90;;;;;;5114623;28;20814;-56
2022/11/21 12:58:06;;;;;;;0.40;0.20;;;10.50;1.00;;;;;;5104229;28;20477;-53
2022/11/21 13:00:39;;;;;;;1.23;0.20;;;10.40;99.90;;;;;;5109554;28;20549;-56
2022/11/21 13:03:35;;;;;;;1.47;0.20;;;10.30;1.00;;;;;;5113227;28;20461;-56
2022/11/21 13:06:04;;;;;;;0.87;0.20;;;10.30;1.00;;;;;;5109030;28;20463;-54
2022/11/21 13:08:35;;;;;;;0.60;0.20;;;10.20;99.90;;;;;;5116000;28;20457;-54
2022/11/21 13:14:02;;;;;;;0.50;0.20;;;10.40;1.00;;;;;;5114954;28;20420;-58
2022/11/21 13:16:38;;;;;;;1.37;0.30;;;10.30;29.80;;;;;;5107414;28;20960;-59
2022/11/21 13:19:17;;;;;;;0.50;0.20;;;10.30;99.90;;;;;;5110917;28;20491;-59
2022/11/21 13:21:46;;;;;;;0.50;0.30;;;10.10;99.90;;;;;;5099671;28;20891;-59
2022/11/21 13:24:51;;;;;;;2.27;0.27;;;10.00;99.90;;;;;;5114614;28;20452;-58
2022/11/21 13:27:32;;;;;;;1.40;0.40;;;10.00;90.20;;;;;;5095207;28;20546;-59
2022/11/21 13:30:20;;;;;;;1.07;0.50;;;9.90;9.50;;;;;;5115319;28;20484;-58
2022/11/21 13:32:49;;;;;;;0.60;0.30;;;9.90;99.90;;;;;;5112528;28;20457;-59
2022/11/21 13:36:04;;;;;;;0.80;0.40;;;9.80;99.90;;;;;;5102462;28;20910;-59
2022/11/21 13:38:31;;;;;;;2.90;0.60;;;9.80;99.60;;;;;;5106684;28;20484;-59
2022/11/21 13:43:44;;;;;;;0.93;0.30;;;9.70;1.00;;;;;;5116227;28;20839;-59
2022/11/21 13:46:11;;;;;;;0.40;0.20;;;9.70;99.90;;;;;;5107166;28;20840;-60
2022/11/21 13:49:01;;;;;;;0.53;0.10;;;9.70;1.00;;;;;;5115249;28;20551;-60
2022/11/21 13:51:46;;;;;;;0.70;0.10;;;9.70;99.90;;;;;;5094445;28;20441;-59
2022/11/21 13:54:54;;;;;;;0.90;0.20;;;9.60;1.00;;;;;;5094612;28;20445;-59
2022/11/21 13:57:33;;;;;;;0.60;0.20;;;9.60;1.00;;;;;;5099302;28;20892;-59